createdAt,value
2023-05-24T00:02:08.019Z,14.48
2023-05-24T00:04:34.906Z,14.77
2023-05-24T00:07:04.745Z,14.45
2023-05-24T00:09:31.411Z,14.68
2023-05-24T00:11:58.624Z,12.88
2023-05-24T00:14:25.552Z,15.80
2023-05-24T00:16:52.182Z,14.70
2023-05-24T00:19:22.223Z,14.82
2023-05-24T00:21:49.312Z,15.93
2023-05-24T00:24:17.226Z,12.13
2023-05-24T00:26:44.188Z,14.07
2023-05-24T00:29:11.044Z,13.50
2023-05-24T00:31:37.682Z,14.93
2023-05-24T00:34:04.401Z,14.18
2023-05-24T00:36:31.150Z,14.68
2023-05-24T00:38:57.748Z,14.82
2023-05-24T00:41:24.420Z,15.40
2023-05-24T00:43:50.962Z,14.15
2023-05-24T00:46:25.197Z,15.10
2023-05-24T00:48:52.019Z,13.95
2023-05-24T00:51:19.000Z,13.77
2023-05-24T00:53:48.094Z,16.42
2023-05-24T00:56:15.880Z,16.55
2023-05-24T00:58:43.314Z,14.13
2023-05-24T01:01:10.034Z,15.18
2023-05-24T01:03:36.818Z,14.85
2023-05-24T01:06:06.472Z,15.93
2023-05-24T01:08:37.341Z,15.05
2023-05-24T01:11:28.868Z,16.33
2023-05-24T01:14:33.751Z,16.10
2023-05-24T01:17:26.613Z,16.17
2023-05-24T01:20:06.532Z,15.60
2023-05-24T01:22:58.668Z,16.73
2023-05-24T01:25:41.801Z,16.17
2023-05-24T01:28:11.148Z,16.73
2023-05-24T01:30:41.601Z,16.23
2023-05-24T01:33:08.939Z,16.10
2023-05-24T01:35:40.211Z,17.10
2023-05-24T01:38:07.637Z,17.00
2023-05-24T01:40:35.369Z,15.82
2023-05-24T01:43:16.858Z,15.68
2023-05-24T01:45:55.629Z,16.35
2023-05-24T01:48:34.549Z,14.52
2023-05-24T01:51:07.153Z,16.27
2023-05-24T01:53:35.657Z,15.48
2023-05-24T01:56:06.312Z,16.77
2023-05-24T01:58:34.459Z,17.50
2023-05-24T02:01:02.501Z,15.45
2023-05-24T02:03:29.259Z,17.23
2023-05-24T02:05:55.829Z,15.15
2023-05-24T02:08:22.910Z,15.20
2023-05-24T02:10:49.611Z,14.93
2023-05-24T02:13:18.005Z,17.25
2023-05-24T02:15:44.785Z,18.17
2023-05-24T02:18:12.934Z,16.92
2023-05-24T02:20:39.844Z,18.25
2023-05-24T02:23:07.249Z,16.08
2023-05-24T02:25:33.895Z,16.48
2023-05-24T02:28:00.666Z,15.73
2023-05-24T02:30:27.718Z,16.23
2023-05-24T02:32:54.358Z,17.92
2023-05-24T02:35:21.143Z,17.50
2023-05-24T02:37:47.892Z,17.05
2023-05-24T02:40:14.554Z,18.15
2023-05-24T02:42:41.236Z,18.52
2023-05-24T02:45:08.360Z,18.02
2023-05-24T02:47:34.978Z,16.20
2023-05-24T02:50:01.550Z,16.48
2023-05-24T02:52:28.140Z,16.90
2023-05-24T02:54:54.716Z,17.92
2023-05-24T02:57:21.702Z,18.23
2023-05-24T02:59:48.346Z,16.25
2023-05-24T03:02:15.337Z,18.52
2023-05-24T03:04:41.915Z,17.90
2023-05-24T03:07:08.481Z,16.70
2023-05-24T03:09:35.428Z,16.85
2023-05-24T03:12:02.050Z,18.52
2023-05-24T03:14:28.713Z,16.92
2023-05-24T03:16:55.406Z,17.33
2023-05-24T03:19:21.961Z,16.70
2023-05-24T03:21:48.574Z,17.48
2023-05-24T03:24:15.233Z,17.90
2023-05-24T03:26:41.909Z,17.65
2023-05-24T03:29:08.741Z,16.42
2023-05-24T03:31:35.529Z,18.38
2023-05-24T03:34:02.116Z,17.48
2023-05-24T03:36:29.117Z,17.13
2023-05-24T03:38:58.169Z,17.67
2023-05-24T03:41:24.983Z,16.95
2023-05-24T03:43:54.378Z,17.98
2023-05-24T03:46:21.073Z,19.48
2023-05-24T03:48:49.184Z,19.42
2023-05-24T03:51:15.849Z,18.23
2023-05-24T03:53:42.732Z,18.60
2023-05-24T03:56:09.321Z,18.23
2023-05-24T03:58:35.934Z,18.73
2023-05-24T04:01:02.593Z,19.02
2023-05-24T04:03:29.263Z,18.92
2023-05-24T04:05:55.930Z,17.90
2023-05-24T04:08:22.591Z,19.08
2023-05-24T04:10:49.222Z,16.88
2023-05-24T04:13:16.297Z,16.58
2023-05-24T04:15:43.429Z,16.45
2023-05-24T04:18:10.138Z,17.50
2023-05-24T04:20:36.913Z,16.27
2023-05-24T04:23:03.585Z,15.98
2023-05-24T04:25:30.237Z,15.80
2023-05-24T04:27:57.141Z,17.02
2023-05-24T04:30:23.756Z,16.73
2023-05-24T04:32:51.242Z,17.17
2023-05-24T04:35:18.184Z,16.38
2023-05-24T04:37:44.978Z,17.05
2023-05-24T04:40:12.250Z,17.60
2023-05-24T04:42:39.150Z,15.75
2023-05-24T04:45:06.978Z,17.25
2023-05-24T04:47:33.659Z,17.65
2023-05-24T04:50:00.290Z,16.38
2023-05-24T04:52:27.662Z,16.40
2023-05-24T04:54:55.446Z,16.02
2023-05-24T04:57:22.220Z,17.80
2023-05-24T04:59:48.847Z,16.30
2023-05-24T05:02:15.513Z,15.95
2023-05-24T05:04:42.308Z,16.02
2023-05-24T05:07:08.875Z,17.10
2023-05-24T05:09:35.792Z,17.48
2023-05-24T05:12:02.830Z,15.13
2023-05-24T05:14:29.591Z,16.48
2023-05-24T05:16:56.376Z,17.83
2023-05-24T05:19:24.263Z,14.45
2023-05-24T05:21:51.582Z,16.70
2023-05-24T05:24:19.084Z,14.93
2023-05-24T05:26:45.661Z,15.80
2023-05-24T05:29:12.222Z,14.45
2023-05-24T05:31:39.593Z,16.67
2023-05-24T05:34:09.635Z,16.40
2023-05-24T05:36:40.856Z,15.67
2023-05-24T05:39:11.366Z,14.50
2023-05-24T05:41:39.706Z,14.68
2023-05-24T05:44:06.592Z,15.05
2023-05-24T05:46:33.314Z,16.17
2023-05-24T05:49:00.035Z,15.00
2023-05-24T05:51:26.739Z,15.55
2023-05-24T05:53:53.378Z,13.32
2023-05-24T05:56:20.089Z,16.15
2023-05-24T05:58:46.801Z,14.93
2023-05-24T06:01:14.116Z,13.85
2023-05-24T06:03:41.345Z,16.17
2023-05-24T06:06:08.136Z,15.70
2023-05-24T06:08:35.164Z,14.77
2023-05-24T06:11:02.135Z,14.63
2023-05-24T06:13:28.871Z,15.45
2023-05-24T06:15:55.527Z,15.05
2023-05-24T06:18:22.193Z,15.05
2023-05-24T06:20:49.194Z,13.10
2023-05-24T06:23:16.209Z,14.60
2023-05-24T06:25:43.828Z,14.27
2023-05-24T06:28:10.784Z,14.35
2023-05-24T06:30:37.516Z,14.00
2023-05-24T06:33:04.317Z,12.98
2023-05-24T06:35:30.927Z,13.73
2023-05-24T06:37:57.980Z,14.73
2023-05-24T06:40:24.644Z,13.27
2023-05-24T06:42:51.389Z,12.82
2023-05-24T06:45:17.980Z,13.60
2023-05-24T06:47:44.699Z,12.55
2023-05-24T06:50:11.456Z,11.25
2023-05-24T06:52:38.010Z,12.40
2023-05-24T06:55:04.983Z,11.68
2023-05-24T06:57:31.658Z,10.75
2023-05-24T06:59:58.433Z,10.32
2023-05-24T07:02:27.462Z,11.38
2023-05-24T07:04:54.602Z,12.77
2023-05-24T07:07:21.604Z,10.95
2023-05-24T07:09:48.295Z,10.02
2023-05-24T07:12:14.903Z,10.68
2023-05-24T07:14:41.527Z,9.85
2023-05-24T07:17:08.333Z,10.27
2023-05-24T07:19:36.003Z,9.38
2023-05-24T07:22:02.762Z,9.00
2023-05-24T07:24:29.598Z,11.30
2023-05-24T07:26:57.481Z,10.20
2023-05-24T07:29:24.432Z,9.50
2023-05-24T07:31:51.056Z,9.57
2023-05-24T07:34:21.084Z,9.50
2023-05-24T07:36:49.375Z,9.80
2023-05-24T07:39:16.458Z,11.00
2023-05-24T07:41:43.065Z,9.27
2023-05-24T07:44:09.793Z,12.07
2023-05-24T07:46:36.884Z,10.48
2023-05-24T07:49:03.939Z,9.93
2023-05-24T07:51:32.468Z,10.27
2023-05-24T07:53:59.138Z,10.50
2023-05-24T07:56:26.151Z,9.43
2023-05-24T07:58:56.765Z,12.35
2023-05-24T08:01:23.582Z,10.88
2023-05-24T08:03:50.213Z,11.30
2023-05-24T08:06:18.195Z,11.20
2023-05-24T08:08:45.796Z,11.15
2023-05-24T08:11:12.452Z,11.18
2023-05-24T08:13:39.025Z,11.15
2023-05-24T08:16:06.213Z,10.50
2023-05-24T08:18:33.266Z,10.93
2023-05-24T08:20:59.915Z,11.18
2023-05-24T08:23:26.908Z,10.93
2023-05-24T08:25:54.199Z,10.13
2023-05-24T08:28:21.064Z,11.38
2023-05-24T08:30:48.064Z,11.88
2023-05-24T08:33:15.108Z,11.20
2023-05-24T08:35:41.927Z,10.35
2023-05-24T08:38:09.106Z,9.95
2023-05-24T08:40:35.748Z,10.80
2023-05-24T08:43:02.612Z,10.95
2023-05-24T08:45:34.126Z,11.25
2023-05-24T08:48:01.550Z,10.90
2023-05-24T08:50:29.151Z,9.95
2023-05-24T08:52:57.698Z,10.18
2023-05-24T08:55:24.971Z,10.68
2023-05-24T08:57:52.569Z,10.07
2023-05-24T09:00:19.710Z,10.18
2023-05-24T09:02:47.046Z,10.05
2023-05-24T09:05:21.466Z,10.32
2023-05-24T09:07:50.536Z,9.70
2023-05-24T09:10:21.301Z,9.50
2023-05-24T09:12:57.452Z,10.20
2023-05-24T09:15:24.106Z,10.05
2023-05-24T09:17:51.205Z,10.07
2023-05-24T09:20:18.711Z,10.38
2023-05-24T09:22:47.627Z,9.52
2023-05-24T09:25:15.136Z,9.30
2023-05-24T09:27:42.938Z,9.98
2023-05-24T09:30:12.329Z,9.25
2023-05-24T09:32:39.193Z,9.65
2023-05-24T09:35:09.623Z,10.27
2023-05-24T09:37:38.665Z,8.50
2023-05-24T09:40:06.925Z,9.80
2023-05-24T09:42:33.546Z,9.80
2023-05-24T09:45:11.199Z,10.23
2023-05-24T09:47:42.352Z,9.63
2023-05-24T09:50:14.139Z,10.88
2023-05-24T09:52:41.825Z,9.57
2023-05-24T09:55:16.360Z,9.95
2023-05-24T09:58:04.051Z,10.55
2023-05-24T10:00:36.365Z,11.35
2023-05-24T10:03:05.190Z,27.60
2023-05-24T10:05:32.041Z,14.52
2023-05-24T10:07:59.851Z,30.80
2023-05-24T10:10:32.456Z,35.28
2023-05-24T10:13:00.504Z,26.25
2023-05-24T10:15:27.791Z,11.15
2023-05-24T10:17:56.043Z,10.93
2023-05-24T10:20:24.154Z,11.48
2023-05-24T10:23:01.390Z,10.98
2023-05-24T10:25:29.826Z,8.95
2023-05-24T10:28:04.546Z,9.50
2023-05-24T10:30:40.286Z,8.85
2023-05-24T10:33:08.439Z,9.68
2023-05-24T10:35:37.997Z,10.85
2023-05-24T10:38:08.169Z,9.15
2023-05-24T10:40:35.044Z,9.43
2023-05-24T10:43:08.116Z,8.90
2023-05-24T10:45:37.858Z,9.02
2023-05-24T10:48:13.526Z,8.60
2023-05-24T10:50:41.897Z,8.68
2023-05-24T10:53:13.559Z,8.98
2023-05-24T10:56:01.026Z,8.57
2023-05-24T10:58:43.920Z,9.30
2023-05-24T11:01:40.968Z,9.40
2023-05-24T11:04:15.254Z,8.95
2023-05-24T11:06:58.030Z,9.23
2023-05-24T11:09:27.401Z,9.38
2023-05-24T11:11:57.227Z,8.80
2023-05-24T11:14:27.473Z,9.05
2023-05-24T11:16:54.883Z,10.18
2023-05-24T11:19:36.543Z,10.38
2023-05-24T11:22:07.661Z,10.05
2023-05-24T11:24:34.672Z,9.60
2023-05-24T11:27:02.482Z,10.00
2023-05-24T11:29:30.238Z,9.65
2023-05-24T11:32:07.578Z,9.25
2023-05-24T11:34:34.956Z,10.13
2023-05-24T11:37:02.894Z,10.02
2023-05-24T11:39:33.396Z,10.13
2023-05-24T11:42:01.331Z,10.20
2023-05-24T11:44:31.720Z,10.48
2023-05-24T11:47:02.610Z,11.18
2023-05-24T11:49:29.657Z,10.95
2023-05-24T11:51:57.680Z,10.55
2023-05-24T11:54:28.282Z,11.45
2023-05-24T11:56:55.557Z,11.13
2023-05-24T11:59:26.717Z,12.05
2023-05-24T12:02:04.486Z,10.32
2023-05-24T12:04:33.079Z,10.30
2023-05-24T12:06:59.964Z,9.93
2023-05-24T12:09:29.192Z,11.93
2023-05-24T12:11:57.513Z,11.18
2023-05-24T12:14:27.750Z,10.77
2023-05-24T12:16:56.725Z,10.48
2023-05-24T12:19:33.219Z,10.60
2023-05-24T12:22:05.296Z,9.85
2023-05-24T12:24:32.523Z,10.77
2023-05-24T12:27:07.446Z,11.00
2023-05-24T12:29:42.376Z,11.35
2023-05-24T12:32:13.230Z,11.23
2023-05-24T12:34:42.105Z,10.55
2023-05-24T12:37:09.718Z,11.68
2023-05-24T12:39:37.431Z,11.05
2023-05-24T12:42:04.774Z,12.13
2023-05-24T12:44:38.431Z,11.70
2023-05-24T12:47:08.152Z,11.70
2023-05-24T12:49:35.173Z,11.75
2023-05-24T12:52:02.073Z,11.60
2023-05-24T12:54:29.825Z,10.95
2023-05-24T12:56:57.842Z,10.55
2023-05-24T12:59:25.999Z,10.88
2023-05-24T13:01:53.302Z,11.43
2023-05-24T13:04:21.914Z,10.95
2023-05-24T13:06:49.077Z,10.43
2023-05-24T13:09:18.865Z,10.57
2023-05-24T13:11:45.741Z,10.90
2023-05-24T13:14:12.559Z,9.65
2023-05-24T13:16:39.400Z,11.73
2023-05-24T13:19:06.396Z,10.50
2023-05-24T13:21:33.488Z,10.90
2023-05-24T13:24:00.144Z,10.77
2023-05-24T13:26:27.095Z,11.68
2023-05-24T13:29:26.620Z,11.02
2023-05-24T13:31:40.898Z,10.13
2023-05-24T13:34:10.588Z,10.45
2023-05-24T13:36:37.932Z,9.85
2023-05-24T13:41:35.475Z,10.15
2023-05-24T13:44:02.222Z,9.18
2023-05-24T13:46:29.263Z,10.32
2023-05-24T13:48:56.903Z,11.00
2023-05-24T13:51:23.938Z,10.93
2023-05-24T13:53:50.799Z,11.27
2023-05-24T13:56:17.671Z,9.35
2023-05-24T13:58:44.654Z,10.48
2023-05-24T14:01:11.442Z,9.63
2023-05-24T14:03:40.165Z,8.32
2023-05-24T14:06:07.942Z,9.07
2023-05-24T14:08:34.846Z,10.43
2023-05-24T14:11:01.541Z,9.32
2023-05-24T14:15:57.839Z,9.52
2023-05-24T14:18:24.460Z,9.05
2023-05-24T14:20:51.148Z,9.60
2023-05-24T14:23:18.168Z,10.00
2023-05-24T14:25:46.825Z,8.68
2023-05-24T14:28:13.638Z,10.00
2023-05-24T14:30:40.442Z,10.32
2023-05-24T14:33:08.013Z,9.40
2023-05-24T14:35:41.002Z,9.73
2023-05-24T14:38:09.643Z,9.30
2023-05-24T14:40:38.942Z,9.40
2023-05-24T14:43:07.118Z,10.10
2023-05-24T14:45:33.808Z,9.30
2023-05-24T14:48:00.954Z,9.77
2023-05-24T14:50:27.699Z,9.15
2023-05-24T14:52:55.654Z,9.20
2023-05-24T14:55:22.690Z,9.48
2023-05-24T14:57:49.452Z,10.20
2023-05-24T15:00:18.565Z,9.27
2023-05-24T15:02:46.549Z,10.18
2023-05-24T15:05:13.411Z,10.65
2023-05-24T15:07:40.023Z,11.63
2023-05-24T15:10:07.018Z,9.32
2023-05-24T15:12:33.800Z,12.02
2023-05-24T15:15:00.512Z,11.80
2023-05-24T15:17:27.373Z,12.05
2023-05-24T15:19:54.252Z,11.43
2023-05-24T15:22:20.926Z,11.25
2023-05-24T15:24:47.528Z,10.98
2023-05-24T15:27:14.150Z,10.55
2023-05-24T15:29:41.010Z,11.30
2023-05-24T15:32:07.600Z,12.38
2023-05-24T15:34:34.155Z,11.70
2023-05-24T15:37:00.736Z,11.90
2023-05-24T15:39:27.344Z,11.93
2023-05-24T15:41:54.466Z,11.15
2023-05-24T15:44:21.258Z,12.27
2023-05-24T15:46:47.914Z,11.82
2023-05-24T15:49:14.478Z,11.93
2023-05-24T15:54:10.609Z,10.90
2023-05-24T15:56:37.478Z,11.48
2023-05-24T15:59:04.069Z,12.20
2023-05-24T16:01:30.756Z,11.20
2023-05-24T16:03:57.463Z,12.15
2023-05-24T16:06:24.084Z,12.60
2023-05-24T16:08:51.055Z,11.70
2023-05-24T16:11:19.158Z,11.45
2023-05-24T16:13:47.713Z,11.63
2023-05-24T16:16:14.370Z,12.00
2023-05-24T16:18:41.209Z,10.55
2023-05-24T16:21:07.790Z,10.82
2023-05-24T16:23:34.414Z,10.50
2023-05-24T16:26:01.160Z,11.68
2023-05-24T16:28:27.751Z,10.98
2023-05-24T16:30:56.303Z,10.73
2023-05-24T16:33:24.494Z,10.52
2023-05-24T16:35:55.492Z,12.40
2023-05-24T16:40:49.492Z,10.25
2023-05-24T16:43:17.418Z,11.27
2023-05-24T16:45:44.736Z,11.32
2023-05-24T16:48:11.973Z,9.60
2023-05-24T16:50:38.893Z,9.63
2023-05-24T16:53:06.740Z,9.13
2023-05-24T16:55:33.639Z,9.23
2023-05-24T16:58:00.393Z,9.13
2023-05-24T17:00:27.098Z,9.55
2023-05-24T17:02:54.558Z,10.18
2023-05-24T17:05:21.382Z,9.27
2023-05-24T17:07:48.341Z,9.65
2023-05-24T17:10:14.946Z,9.23
2023-05-24T17:12:41.560Z,8.90
2023-05-24T17:15:09.113Z,9.88
2023-05-24T17:17:36.160Z,9.63
2023-05-24T17:20:02.862Z,9.52
2023-05-24T17:22:29.481Z,9.77
2023-05-24T17:24:56.084Z,10.23
2023-05-24T17:27:22.824Z,9.63
2023-05-24T17:29:49.611Z,10.70
2023-05-24T17:32:16.331Z,10.05
2023-05-24T17:34:42.962Z,14.25
2023-05-24T17:37:09.543Z,14.20
2023-05-24T17:39:36.203Z,9.85
2023-05-24T17:42:02.884Z,10.32
2023-05-24T17:44:29.465Z,8.55
2023-05-24T17:46:57.309Z,11.20
2023-05-24T17:49:24.062Z,8.95
2023-05-24T17:51:50.777Z,9.82
2023-05-24T17:54:17.385Z,16.15
2023-05-24T17:56:44.010Z,11.73
2023-05-24T17:59:10.953Z,11.30
2023-05-24T18:01:37.838Z,10.63
2023-05-24T18:04:06.314Z,10.70
2023-05-24T18:06:34.910Z,10.18
2023-05-24T18:09:01.514Z,9.25
2023-05-24T18:11:28.403Z,11.52
2023-05-24T18:13:55.070Z,11.13
2023-05-24T18:16:21.807Z,10.25
2023-05-24T18:18:48.450Z,9.70
2023-05-24T18:21:15.219Z,10.48
2023-05-24T18:23:42.405Z,11.13
2023-05-24T18:26:10.713Z,10.50
2023-05-24T18:28:38.343Z,9.65
2023-05-24T18:31:08.229Z,10.95
2023-05-24T18:33:35.187Z,11.15
2023-05-24T18:36:02.314Z,11.02
2023-05-24T18:38:29.307Z,10.45
2023-05-24T18:40:55.922Z,10.63
2023-05-24T18:43:22.546Z,11.05
2023-05-24T18:45:49.130Z,11.32
2023-05-24T18:48:15.771Z,11.07
2023-05-24T18:50:42.362Z,10.25
2023-05-24T18:53:09.395Z,10.40
2023-05-24T18:55:36.004Z,10.63
2023-05-24T18:58:02.610Z,11.00
2023-05-24T19:00:29.284Z,11.00
2023-05-24T19:02:56.521Z,9.30
2023-05-24T19:05:23.288Z,10.95
2023-05-24T19:07:50.214Z,10.55
2023-05-24T19:10:17.630Z,10.48
2023-05-24T19:12:44.282Z,12.40
2023-05-24T19:15:11.210Z,12.85
2023-05-24T19:17:37.853Z,10.88
2023-05-24T19:20:05.145Z,10.63
2023-05-24T19:22:31.814Z,10.35
2023-05-24T19:24:58.470Z,10.73
2023-05-24T19:27:25.274Z,11.75
2023-05-24T19:29:51.912Z,12.70
2023-05-24T19:32:20.080Z,10.75
2023-05-24T19:34:47.045Z,11.15
2023-05-24T19:37:13.698Z,12.27
2023-05-24T19:39:40.265Z,11.98
2023-05-24T19:42:06.838Z,12.02
2023-05-24T19:44:33.621Z,11.05
2023-05-24T19:47:00.406Z,11.48
2023-05-24T19:49:27.005Z,12.25
2023-05-24T19:51:53.697Z,11.65
2023-05-24T19:54:21.024Z,10.63
2023-05-24T19:56:50.450Z,11.23
2023-05-24T19:59:18.002Z,12.40
2023-05-24T20:01:45.410Z,11.65
2023-05-24T20:04:12.589Z,12.10
2023-05-24T20:06:40.616Z,11.10
2023-05-24T20:09:07.279Z,10.77
2023-05-24T20:11:34.663Z,12.15
2023-05-24T20:14:01.658Z,11.75
2023-05-24T20:16:29.287Z,14.35
2023-05-24T20:18:55.897Z,11.18
2023-05-24T20:21:22.501Z,11.98
2023-05-24T20:23:50.570Z,12.95
2023-05-24T20:26:17.169Z,12.20
2023-05-24T20:28:43.838Z,12.82
2023-05-24T20:31:10.456Z,13.15
2023-05-24T20:33:38.364Z,12.40
2023-05-24T20:36:05.559Z,13.30
2023-05-24T20:38:32.200Z,12.13
2023-05-24T20:40:59.508Z,12.27
2023-05-24T20:43:26.096Z,12.13
2023-05-24T20:45:52.871Z,12.43
2023-05-24T20:48:19.662Z,13.00
2023-05-24T20:50:46.372Z,11.68
2023-05-24T20:53:12.967Z,12.90
2023-05-24T20:55:39.560Z,13.82
2023-05-24T20:58:06.154Z,23.75
2023-05-24T21:00:32.787Z,23.05
2023-05-24T21:02:59.445Z,14.98
2023-05-24T21:05:26.152Z,14.02
2023-05-24T21:07:52.749Z,12.32
2023-05-24T21:10:20.053Z,13.02
2023-05-24T21:12:47.835Z,13.55
2023-05-24T21:15:14.705Z,12.98
2023-05-24T21:17:41.338Z,13.57
2023-05-24T21:20:08.358Z,13.63
2023-05-24T21:22:34.983Z,13.88
2023-05-24T21:25:01.598Z,13.38
2023-05-24T21:27:28.156Z,14.32
2023-05-24T21:29:54.828Z,12.68
2023-05-24T21:32:21.536Z,12.43
2023-05-24T21:34:49.636Z,12.23
2023-05-24T21:37:17.235Z,12.98
2023-05-24T21:39:44.222Z,12.27
2023-05-24T21:42:11.041Z,13.43
2023-05-24T21:44:37.625Z,12.13
2023-05-24T21:47:04.959Z,12.52
2023-05-24T21:49:31.597Z,13.05
2023-05-24T21:51:58.248Z,11.52
2023-05-24T21:54:24.891Z,12.23
2023-05-24T21:56:51.518Z,12.00
2023-05-24T21:59:18.111Z,10.82
2023-05-24T22:01:44.698Z,13.27
2023-05-24T22:04:11.474Z,11.30
2023-05-24T22:06:41.256Z,12.20
2023-05-24T22:09:11.311Z,11.77
2023-05-24T22:11:37.882Z,10.80
2023-05-24T22:14:04.540Z,11.13
2023-05-24T22:16:31.171Z,10.95
2023-05-24T22:18:57.826Z,11.38
2023-05-24T22:21:24.547Z,10.73
2023-05-24T22:23:51.801Z,12.18
2023-05-24T22:26:18.378Z,12.15
2023-05-24T22:28:52.526Z,12.10
2023-05-24T22:31:19.730Z,12.40
2023-05-24T22:33:47.962Z,12.30
2023-05-24T22:36:14.732Z,11.30
2023-05-24T22:38:41.476Z,10.98
2023-05-24T22:41:08.140Z,12.80
2023-05-24T22:43:34.725Z,11.88
2023-05-24T22:46:01.510Z,12.43
2023-05-24T22:48:28.173Z,12.82
2023-05-24T22:50:57.012Z,11.05
2023-05-24T22:53:23.943Z,12.13
2023-05-24T22:55:50.612Z,12.27
2023-05-24T22:58:20.938Z,10.57
2023-05-24T23:00:47.592Z,11.40
2023-05-24T23:03:14.178Z,11.73
2023-05-24T23:05:41.636Z,12.13
2023-05-24T23:08:13.009Z,11.70
2023-05-24T23:10:45.437Z,12.05
2023-05-24T23:13:14.356Z,11.13
2023-05-24T23:15:41.248Z,10.32
2023-05-24T23:18:09.682Z,10.77
2023-05-24T23:20:39.977Z,10.85
2023-05-24T23:23:07.713Z,11.18
2023-05-24T23:25:34.859Z,10.02
2023-05-24T23:28:01.510Z,8.73
2023-05-24T23:30:28.341Z,10.13
2023-05-24T23:32:55.260Z,9.93
2023-05-24T23:35:21.984Z,9.45
2023-05-24T23:37:48.660Z,9.27
2023-05-24T23:40:15.326Z,9.70
2023-05-24T23:42:41.979Z,10.45
2023-05-24T23:45:08.767Z,9.20
2023-05-24T23:47:35.395Z,7.57
2023-05-24T23:50:02.307Z,10.32
2023-05-24T23:52:28.902Z,8.25
2023-05-24T23:54:55.522Z,10.40
2023-05-24T23:57:24.811Z,9.38
2023-05-24T23:59:51.573Z,9.30
